aviador You're here:

KHUF Decoded Metar

TERRE HAUTE in IN, USA
Report Time2018-07-16 08:10:00
UTC Time2018-07-16 08:32:25
Flight Rules mvfr MVFR
WindCalm
Visibility9999 m
Phenomena:N/A
Clouds:Broken 013 Hf
Expected CloudBase > 400 ft AGL from Temp-Dew spread
Ceiling1,300 ft
Temp23°C (ISA +9)
Dew Point22°C (94% RH)
QNH1015 hPa
Density Alt1,936 ft
Elevation587 ft
Report Wrong Elevation
Raw Report
KHUF 160810Z 00000KT 7SM BKN013 23/22 A2996 RMK AO2 T02280222=

Extra information for KHUF:More info

Metar Taf Metar & Taf Last 4 Metars F.Rules Stats Wind Profile Meteogram Temp Stats Airport Information Weather charts Add Link Nearby VenuesMetar ALERT Operation Metar Decoded Social comments

AIRNAV info for KHUF